Terminal Aerodrome Forecast
Issued by NWS

Home | Current Version | Previous Version | Text Only | Print | Product List | Glossary On
Versions: 1 2 3 4 5 6 7 8 9 10 11 12 13 14 15 16 17 18 19 20 21 22 23 24 25 26 27
000
FTUS44 KHGX 251130
TAFIAH
TAF
KIAH 251130Z 2512/2618 00000KT P6SM FEW070 SCT250
     FM251500 VRB03KT P6SM VCSH SCT025
     FM251800 17005KT P6SM VCTS BKN035CB
      TEMPO 2519/2523 TSRA
     FM260200 VRB04KT P6SM SCT050
     FM261500 VRB03KT P6SM VCTS SCT035CB=

USA.gov is the U.S. government's official web portal to all federal, state and local government web resources and services.